sensor_id;sensor_type;location;lat;lon;timestamp;P1;durP1;ratioP1;P2;durP2;ratioP2
18172;SDS011;9211;48.818;9.312;2022-11-20T00:01:26;14.63;;;8.33;;
18172;SDS011;9211;48.818;9.312;2022-11-20T00:03:54;14.38;;;8.20;;
18172;SDS011;9211;48.818;9.312;2022-11-20T00:06:26;15.32;;;8.35;;
18172;SDS011;9211;48.818;9.312;2022-11-20T00:08:54;15.38;;;8.70;;
18172;SDS011;9211;48.818;9.312;2022-11-20T00:11:24;17.63;;;9.30;;
18172;SDS011;9211;48.818;9.312;2022-11-20T00:13:53;17.55;;;9.50;;
18172;SDS011;9211;48.818;9.312;2022-11-20T00:16:23;18.13;;;9.27;;
18172;SDS011;9211;48.818;9.312;2022-11-20T00:18:52;16.40;;;9.18;;
18172;SDS011;9211;48.818;9.312;2022-11-20T00:21:21;16.50;;;9.30;;
18172;SDS011;9211;48.818;9.312;2022-11-20T00:23:51;14.38;;;8.70;;
18172;SDS011;9211;48.818;9.312;2022-11-20T00:26:20;15.55;;;8.95;;
18172;SDS011;9211;48.818;9.312;2022-11-20T00:28:49;19.00;;;9.25;;
18172;SDS011;9211;48.818;9.312;2022-11-20T00:31:17;19.33;;;10.15;;
18172;SDS011;9211;48.818;9.312;2022-11-20T00:33:44;17.90;;;10.07;;
18172;SDS011;9211;48.818;9.312;2022-11-20T00:36:12;16.92;;;9.65;;
18172;SDS011;9211;48.818;9.312;2022-11-20T00:38:40;14.80;;;9.27;;
18172;SDS011;9211;48.818;9.312;2022-11-20T00:41:10;17.23;;;9.20;;
18172;SDS011;9211;48.818;9.312;2022-11-20T00:43:38;17.20;;;9.48;;
18172;SDS011;9211;48.818;9.312;2022-11-20T00:46:06;17.20;;;9.43;;
18172;SDS011;9211;48.818;9.312;2022-11-20T00:48:34;16.95;;;9.00;;
18172;SDS011;9211;48.818;9.312;2022-11-20T00:51:02;14.70;;;8.70;;
18172;SDS011;9211;48.818;9.312;2022-11-20T00:53:30;17.00;;;9.25;;
18172;SDS011;9211;48.818;9.312;2022-11-20T00:55:58;16.80;;;9.50;;
18172;SDS011;9211;48.818;9.312;2022-11-20T00:58:30;16.52;;;8.90;;
18172;SDS011;9211;48.818;9.312;2022-11-20T01:01:03;17.10;;;9.40;;
18172;SDS011;9211;48.818;9.312;2022-11-20T01:03:31;16.63;;;9.70;;
18172;SDS011;9211;48.818;9.312;2022-11-20T01:05:59;17.73;;;9.60;;
18172;SDS011;9211;48.818;9.312;2022-11-20T01:08:29;17.27;;;9.50;;
18172;SDS011;9211;48.818;9.312;2022-11-20T01:11:00;15.55;;;9.35;;
18172;SDS011;9211;48.818;9.312;2022-11-20T01:13:30;15.27;;;8.82;;
18172;SDS011;9211;48.818;9.312;2022-11-20T01:16:03;18.40;;;9.82;;
18172;SDS011;9211;48.818;9.312;2022-11-20T01:18:31;18.05;;;9.63;;
18172;SDS011;9211;48.818;9.312;2022-11-20T01:21:02;16.20;;;9.27;;
18172;SDS011;9211;48.818;9.312;2022-11-20T01:23:31;16.45;;;9.25;;
18172;SDS011;9211;48.818;9.312;2022-11-20T01:26:00;15.88;;;9.00;;
18172;SDS011;9211;48.818;9.312;2022-11-20T01:28:28;14.43;;;8.93;;
18172;SDS011;9211;48.818;9.312;2022-11-20T01:30:56;14.88;;;8.85;;
18172;SDS011;9211;48.818;9.312;2022-11-20T01:33:24;15.45;;;9.10;;
18172;SDS011;9211;48.818;9.312;2022-11-20T01:35:53;15.25;;;8.68;;
18172;SDS011;9211;48.818;9.312;2022-11-20T01:38:29;15.10;;;8.95;;
18172;SDS011;9211;48.818;9.312;2022-11-20T01:40:56;16.00;;;8.98;;
18172;SDS011;9211;48.818;9.312;2022-11-20T01:43:23;14.20;;;8.38;;
18172;SDS011;9211;48.818;9.312;2022-11-20T01:45:52;13.90;;;8.60;;
18172;SDS011;9211;48.818;9.312;2022-11-20T01:48:30;13.77;;;8.32;;
18172;SDS011;9211;48.818;9.312;2022-11-20T01:51:02;14.17;;;8.33;;
18172;SDS011;9211;48.818;9.312;2022-11-20T01:53:33;14.48;;;8.32;;
18172;SDS011;9211;48.818;9.312;2022-11-20T01:56:03;15.75;;;8.88;;
18172;SDS011;9211;48.818;9.312;2022-11-20T01:58:35;14.70;;;8.63;;
18172;SDS011;9211;48.818;9.312;2022-11-20T02:01:06;13.87;;;8.20;;
18172;SDS011;9211;48.818;9.312;2022-11-20T02:03:33;14.02;;;8.55;;
18172;SDS011;9211;48.818;9.312;2022-11-20T02:06:03;15.38;;;8.60;;
18172;SDS011;9211;48.818;9.312;2022-11-20T02:08:35;15.10;;;8.87;;
18172;SDS011;9211;48.818;9.312;2022-11-20T02:11:02;16.03;;;9.10;;
18172;SDS011;9211;48.818;9.312;2022-11-20T02:13:29;15.02;;;8.82;;
18172;SDS011;9211;48.818;9.312;2022-11-20T02:16:18;16.30;;;9.18;;
18172;SDS011;9211;48.818;9.312;2022-11-20T02:18:48;15.50;;;8.90;;
18172;SDS011;9211;48.818;9.312;2022-11-20T02:21:24;14.18;;;8.15;;
18172;SDS011;9211;48.818;9.312;2022-11-20T02:24:02;14.43;;;8.68;;
18172;SDS011;9211;48.818;9.312;2022-11-20T02:26:33;14.77;;;8.40;;
18172;SDS011;9211;48.818;9.312;2022-11-20T02:29:03;13.27;;;8.18;;
18172;SDS011;9211;48.818;9.312;2022-11-20T02:31:34;15.00;;;8.52;;
18172;SDS011;9211;48.818;9.312;2022-11-20T02:34:06;13.98;;;8.70;;
18172;SDS011;9211;48.818;9.312;2022-11-20T02:36:34;13.48;;;8.32;;
18172;SDS011;9211;48.818;9.312;2022-11-20T02:39:04;13.93;;;8.07;;
18172;SDS011;9211;48.818;9.312;2022-11-20T02:41:32;13.73;;;8.20;;
18172;SDS011;9211;48.818;9.312;2022-11-20T02:44:00;13.03;;;7.77;;
18172;SDS011;9211;48.818;9.312;2022-11-20T02:46:27;13.82;;;8.00;;
18172;SDS011;9211;48.818;9.312;2022-11-20T02:48:54;13.55;;;7.88;;
18172;SDS011;9211;48.818;9.312;2022-11-20T02:51:22;11.53;;;7.27;;
18172;SDS011;9211;48.818;9.312;2022-11-20T02:53:49;11.60;;;7.05;;
18172;SDS011;9211;48.818;9.312;2022-11-20T02:56:18;10.82;;;6.75;;
18172;SDS011;9211;48.818;9.312;2022-11-20T02:58:45;11.07;;;6.30;;
18172;SDS011;9211;48.818;9.312;2022-11-20T03:01:12;9.63;;;5.80;;
18172;SDS011;9211;48.818;9.312;2022-11-20T03:03:39;8.48;;;5.32;;
18172;SDS011;9211;48.818;9.312;2022-11-20T03:06:06;7.05;;;4.43;;
18172;SDS011;9211;48.818;9.312;2022-11-20T03:08:34;6.55;;;4.05;;
18172;SDS011;9211;48.818;9.312;2022-11-20T03:11:02;7.90;;;4.38;;
18172;SDS011;9211;48.818;9.312;2022-11-20T03:13:31;6.10;;;4.18;;
18172;SDS011;9211;48.818;9.312;2022-11-20T03:15:58;7.97;;;4.05;;
18172;SDS011;9211;48.818;9.312;2022-11-20T03:18:30;6.87;;;4.20;;
18172;SDS011;9211;48.818;9.312;2022-11-20T03:20:57;5.70;;;3.72;;
18172;SDS011;9211;48.818;9.312;2022-11-20T03:23:25;7.00;;;3.22;;
18172;SDS011;9211;48.818;9.312;2022-11-20T03:25:52;3.90;;;2.80;;
18172;SDS011;9211;48.818;9.312;2022-11-20T03:28:19;4.25;;;2.83;;
18172;SDS011;9211;48.818;9.312;2022-11-20T03:30:47;5.43;;;2.88;;
18172;SDS011;9211;48.818;9.312;2022-11-20T03:33:14;5.70;;;2.70;;
18172;SDS011;9211;48.818;9.312;2022-11-20T03:35:41;4.73;;;2.60;;
18172;SDS011;9211;48.818;9.312;2022-11-20T03:38:08;5.10;;;2.80;;
18172;SDS011;9211;48.818;9.312;2022-11-20T03:40:35;5.22;;;2.90;;
18172;SDS011;9211;48.818;9.312;2022-11-20T03:43:02;4.97;;;2.90;;
18172;SDS011;9211;48.818;9.312;2022-11-20T03:45:29;4.15;;;2.80;;
18172;SDS011;9211;48.818;9.312;2022-11-20T03:47:57;3.65;;;2.78;;
18172;SDS011;9211;48.818;9.312;2022-11-20T03:50:24;4.90;;;2.63;;
18172;SDS011;9211;48.818;9.312;2022-11-20T03:52:51;5.55;;;2.78;;
18172;SDS011;9211;48.818;9.312;2022-11-20T03:55:18;4.00;;;2.50;;
18172;SDS011;9211;48.818;9.312;2022-11-20T03:57:45;4.20;;;2.88;;
18172;SDS011;9211;48.818;9.312;2022-11-20T04:00:13;5.15;;;2.88;;
18172;SDS011;9211;48.818;9.312;2022-11-20T04:02:40;5.25;;;2.80;;
18172;SDS011;9211;48.818;9.312;2022-11-20T04:05:08;4.45;;;2.70;;
18172;SDS011;9211;48.818;9.312;2022-11-20T04:07:35;4.93;;;2.80;;
18172;SDS011;9211;48.818;9.312;2022-11-20T04:10:02;4.63;;;3.13;;
18172;SDS011;9211;48.818;9.312;2022-11-20T04:12:31;4.45;;;2.70;;
18172;SDS011;9211;48.818;9.312;2022-11-20T04:14:59;4.80;;;2.70;;
18172;SDS011;9211;48.818;9.312;2022-11-20T04:17:26;4.28;;;2.90;;
18172;SDS011;9211;48.818;9.312;2022-11-20T04:19:53;4.70;;;2.78;;
18172;SDS011;9211;48.818;9.312;2022-11-20T04:22:21;4.93;;;3.07;;
18172;SDS011;9211;48.818;9.312;2022-11-20T04:24:48;5.10;;;3.10;;
18172;SDS011;9211;48.818;9.312;2022-11-20T04:27:15;4.15;;;2.88;;
18172;SDS011;9211;48.818;9.312;2022-11-20T04:29:42;4.53;;;3.00;;
18172;SDS011;9211;48.818;9.312;2022-11-20T04:32:09;4.10;;;2.70;;
18172;SDS011;9211;48.818;9.312;2022-11-20T04:34:36;5.50;;;2.90;;
18172;SDS011;9211;48.818;9.312;2022-11-20T04:37:03;5.10;;;2.78;;
18172;SDS011;9211;48.818;9.312;2022-11-20T04:39:31;5.03;;;2.85;;
18172;SDS011;9211;48.818;9.312;2022-11-20T04:41:58;4.95;;;2.60;;
18172;SDS011;9211;48.818;9.312;2022-11-20T04:44:43;5.53;;;2.67;;
18172;SDS011;9211;48.818;9.312;2022-11-20T04:47:10;5.78;;;2.72;;
18172;SDS011;9211;48.818;9.312;2022-11-20T04:49:36;5.10;;;2.72;;
18172;SDS011;9211;48.818;9.312;2022-11-20T04:52:03;4.45;;;2.60;;
18172;SDS011;9211;48.818;9.312;2022-11-20T04:54:32;4.55;;;2.60;;
18172;SDS011;9211;48.818;9.312;2022-11-20T04:56:59;6.05;;;2.60;;
18172;SDS011;9211;48.818;9.312;2022-11-20T04:59:26;4.45;;;2.22;;
18172;SDS011;9211;48.818;9.312;2022-11-20T05:01:53;4.03;;;2.40;;
18172;SDS011;9211;48.818;9.312;2022-11-20T05:04:20;4.05;;;2.50;;
18172;SDS011;9211;48.818;9.312;2022-11-20T05:06:47;5.20;;;2.65;;
18172;SDS011;9211;48.818;9.312;2022-11-20T05:09:14;3.72;;;2.50;;
18172;SDS011;9211;48.818;9.312;2022-11-20T05:11:42;4.00;;;2.60;;
18172;SDS011;9211;48.818;9.312;2022-11-20T05:14:09;6.63;;;2.50;;
18172;SDS011;9211;48.818;9.312;2022-11-20T05:16:36;6.25;;;2.80;;
18172;SDS011;9211;48.818;9.312;2022-11-20T05:19:03;3.80;;;2.55;;
18172;SDS011;9211;48.818;9.312;2022-11-20T05:21:30;5.00;;;3.00;;
18172;SDS011;9211;48.818;9.312;2022-11-20T05:23:57;4.28;;;2.55;;
18172;SDS011;9211;48.818;9.312;2022-11-20T05:26:24;3.53;;;2.50;;
18172;SDS011;9211;48.818;9.312;2022-11-20T05:28:52;5.03;;;2.70;;
18172;SDS011;9211;48.818;9.312;2022-11-20T05:31:20;6.15;;;2.63;;
18172;SDS011;9211;48.818;9.312;2022-11-20T05:33:49;3.65;;;2.70;;
18172;SDS011;9211;48.818;9.312;2022-11-20T05:36:16;4.50;;;2.60;;
18172;SDS011;9211;48.818;9.312;2022-11-20T05:38:43;5.13;;;2.80;;
18172;SDS011;9211;48.818;9.312;2022-11-20T05:41:11;4.40;;;2.55;;
18172;SDS011;9211;48.818;9.312;2022-11-20T05:43:39;3.47;;;2.30;;
18172;SDS011;9211;48.818;9.312;2022-11-20T05:46:09;4.28;;;2.50;;
18172;SDS011;9211;48.818;9.312;2022-11-20T05:48:38;3.42;;;2.40;;
18172;SDS011;9211;48.818;9.312;2022-11-20T05:51:07;4.60;;;2.40;;
18172;SDS011;9211;48.818;9.312;2022-11-20T05:53:35;4.43;;;2.50;;
18172;SDS011;9211;48.818;9.312;2022-11-20T05:56:03;4.75;;;2.75;;
18172;SDS011;9211;48.818;9.312;2022-11-20T05:58:32;3.63;;;2.40;;
18172;SDS011;9211;48.818;9.312;2022-11-20T06:01:04;3.28;;;2.30;;
18172;SDS011;9211;48.818;9.312;2022-11-20T06:03:33;4.90;;;2.42;;
18172;SDS011;9211;48.818;9.312;2022-11-20T06:06:01;3.50;;;2.40;;
18172;SDS011;9211;48.818;9.312;2022-11-20T06:08:28;3.83;;;2.10;;
18172;SDS011;9211;48.818;9.312;2022-11-20T06:10:56;3.72;;;2.40;;
18172;SDS011;9211;48.818;9.312;2022-11-20T06:13:23;3.20;;;2.20;;
18172;SDS011;9211;48.818;9.312;2022-11-20T06:15:50;4.45;;;2.30;;
18172;SDS011;9211;48.818;9.312;2022-11-20T06:18:18;2.90;;;1.90;;
18172;SDS011;9211;48.818;9.312;2022-11-20T06:20:47;4.35;;;2.20;;
18172;SDS011;9211;48.818;9.312;2022-11-20T06:23:14;3.10;;;2.30;;
18172;SDS011;9211;48.818;9.312;2022-11-20T06:25:41;5.80;;;2.50;;
18172;SDS011;9211;48.818;9.312;2022-11-20T06:28:09;5.38;;;2.60;;
18172;SDS011;9211;48.818;9.312;2022-11-20T06:30:36;5.57;;;2.47;;
18172;SDS011;9211;48.818;9.312;2022-11-20T06:33:03;4.68;;;2.38;;
18172;SDS011;9211;48.818;9.312;2022-11-20T06:35:30;4.90;;;2.28;;
18172;SDS011;9211;48.818;9.312;2022-11-20T06:37:58;3.63;;;2.33;;
18172;SDS011;9211;48.818;9.312;2022-11-20T06:40:25;4.53;;;2.40;;
18172;SDS011;9211;48.818;9.312;2022-11-20T06:42:53;4.30;;;2.10;;
18172;SDS011;9211;48.818;9.312;2022-11-20T06:45:20;2.97;;;1.88;;
18172;SDS011;9211;48.818;9.312;2022-11-20T06:47:47;3.80;;;2.10;;
18172;SDS011;9211;48.818;9.312;2022-11-20T06:50:14;2.67;;;1.80;;
18172;SDS011;9211;48.818;9.312;2022-11-20T06:52:41;3.25;;;1.83;;
18172;SDS011;9211;48.818;9.312;2022-11-20T06:55:09;4.10;;;2.08;;
18172;SDS011;9211;48.818;9.312;2022-11-20T06:57:36;4.50;;;2.00;;
18172;SDS011;9211;48.818;9.312;2022-11-20T07:00:04;3.38;;;1.98;;
18172;SDS011;9211;48.818;9.312;2022-11-20T07:02:31;3.25;;;1.85;;
18172;SDS011;9211;48.818;9.312;2022-11-20T07:04:58;2.72;;;1.70;;
18172;SDS011;9211;48.818;9.312;2022-11-20T07:07:25;3.10;;;1.97;;
18172;SDS011;9211;48.818;9.312;2022-11-20T07:09:52;3.50;;;2.03;;
18172;SDS011;9211;48.818;9.312;2022-11-20T07:12:21;3.25;;;1.85;;
18172;SDS011;9211;48.818;9.312;2022-11-20T07:14:48;3.13;;;2.00;;
18172;SDS011;9211;48.818;9.312;2022-11-20T07:17:15;4.00;;;2.00;;
18172;SDS011;9211;48.818;9.312;2022-11-20T07:19:42;3.00;;;1.85;;
18172;SDS011;9211;48.818;9.312;2022-11-20T07:22:09;2.95;;;2.00;;
18172;SDS011;9211;48.818;9.312;2022-11-20T07:24:36;3.38;;;1.90;;
18172;SDS011;9211;48.818;9.312;2022-11-20T07:27:03;4.90;;;2.10;;
18172;SDS011;9211;48.818;9.312;2022-11-20T07:29:32;4.82;;;2.00;;
18172;SDS011;9211;48.818;9.312;2022-11-20T07:31:59;2.80;;;1.85;;
18172;SDS011;9211;48.818;9.312;2022-11-20T07:34:26;3.33;;;2.15;;
18172;SDS011;9211;48.818;9.312;2022-11-20T07:36:53;3.47;;;1.92;;
18172;SDS011;9211;48.818;9.312;2022-11-20T07:39:20;4.03;;;1.95;;
18172;SDS011;9211;48.818;9.312;2022-11-20T07:41:47;3.60;;;2.00;;
18172;SDS011;9211;48.818;9.312;2022-11-20T07:44:14;4.00;;;2.00;;
18172;SDS011;9211;48.818;9.312;2022-11-20T07:46:42;4.68;;;2.03;;
18172;SDS011;9211;48.818;9.312;2022-11-20T07:49:09;2.97;;;1.80;;
18172;SDS011;9211;48.818;9.312;2022-11-20T07:51:36;5.25;;;1.98;;
18172;SDS011;9211;48.818;9.312;2022-11-20T07:54:03;5.50;;;2.00;;
18172;SDS011;9211;48.818;9.312;2022-11-20T07:56:30;3.67;;;1.83;;
18172;SDS011;9211;48.818;9.312;2022-11-20T07:58:57;3.65;;;2.00;;
18172;SDS011;9211;48.818;9.312;2022-11-20T08:01:24;4.47;;;1.90;;
18172;SDS011;9211;48.818;9.312;2022-11-20T08:03:53;2.92;;;1.90;;
18172;SDS011;9211;48.818;9.312;2022-11-20T08:06:20;2.70;;;1.90;;
18172;SDS011;9211;48.818;9.312;2022-11-20T08:08:47;3.53;;;1.88;;
18172;SDS011;9211;48.818;9.312;2022-11-20T08:11:14;3.42;;;1.80;;
18172;SDS011;9211;48.818;9.312;2022-11-20T08:13:58;2.30;;;1.67;;
18172;SDS011;9211;48.818;9.312;2022-11-20T08:16:41;3.03;;;1.90;;
18172;SDS011;9211;48.818;9.312;2022-11-20T08:19:11;3.60;;;1.90;;
18172;SDS011;9211;48.818;9.312;2022-11-20T08:21:38;2.97;;;1.90;;
18172;SDS011;9211;48.818;9.312;2022-11-20T08:24:06;2.20;;;1.70;;
18172;SDS011;9211;48.818;9.312;2022-11-20T08:26:33;3.23;;;1.60;;
18172;SDS011;9211;48.818;9.312;2022-11-20T08:29:01;3.65;;;1.85;;
18172;SDS011;9211;48.818;9.312;2022-11-20T08:31:28;3.63;;;1.65;;
18172;SDS011;9211;48.818;9.312;2022-11-20T08:33:55;3.38;;;1.92;;
18172;SDS011;9211;48.818;9.312;2022-11-20T08:36:23;3.13;;;1.83;;
18172;SDS011;9211;48.818;9.312;2022-11-20T08:38:51;3.28;;;1.58;;
18172;SDS011;9211;48.818;9.312;2022-11-20T08:41:19;2.38;;;1.58;;
18172;SDS011;9211;48.818;9.312;2022-11-20T08:43:53;3.78;;;1.58;;
18172;SDS011;9211;48.818;9.312;2022-11-20T08:46:22;3.40;;;1.50;;
18172;SDS011;9211;48.818;9.312;2022-11-20T08:48:50;2.55;;;1.38;;
18172;SDS011;9211;48.818;9.312;2022-11-20T08:51:18;2.92;;;1.42;;
18172;SDS011;9211;48.818;9.312;2022-11-20T08:53:47;2.55;;;1.52;;
18172;SDS011;9211;48.818;9.312;2022-11-20T08:56:14;2.40;;;1.58;;
18172;SDS011;9211;48.818;9.312;2022-11-20T08:58:42;2.67;;;1.45;;
18172;SDS011;9211;48.818;9.312;2022-11-20T09:01:09;4.20;;;1.73;;
18172;SDS011;9211;48.818;9.312;2022-11-20T09:03:36;2.22;;;1.63;;
18172;SDS011;9211;48.818;9.312;2022-11-20T09:06:04;2.30;;;1.33;;
18172;SDS011;9211;48.818;9.312;2022-11-20T09:08:32;2.57;;;1.27;;
18172;SDS011;9211;48.818;9.312;2022-11-20T09:11:02;2.15;;;1.30;;
18172;SDS011;9211;48.818;9.312;2022-11-20T09:13:30;2.40;;;1.20;;
18172;SDS011;9211;48.818;9.312;2022-11-20T09:15:59;3.30;;;1.40;;
18172;SDS011;9211;48.818;9.312;2022-11-20T09:18:27;2.50;;;1.30;;
18172;SDS011;9211;48.818;9.312;2022-11-20T09:20:56;3.03;;;1.48;;
18172;SDS011;9211;48.818;9.312;2022-11-20T09:23:24;2.50;;;1.50;;
18172;SDS011;9211;48.818;9.312;2022-11-20T09:25:52;3.63;;;1.47;;
18172;SDS011;9211;48.818;9.312;2022-11-20T09:28:26;3.20;;;1.35;;
18172;SDS011;9211;48.818;9.312;2022-11-20T09:30:53;2.70;;;1.30;;
18172;SDS011;9211;48.818;9.312;2022-11-20T09:33:20;2.25;;;1.10;;
18172;SDS011;9211;48.818;9.312;2022-11-20T09:35:47;1.80;;;1.15;;
18172;SDS011;9211;48.818;9.312;2022-11-20T09:38:14;1.70;;;1.20;;
18172;SDS011;9211;48.818;9.312;2022-11-20T09:40:43;2.10;;;1.00;;
18172;SDS011;9211;48.818;9.312;2022-11-20T09:43:15;1.90;;;1.10;;
18172;SDS011;9211;48.818;9.312;2022-11-20T09:45:53;1.75;;;1.10;;
18172;SDS011;9211;48.818;9.312;2022-11-20T09:48:29;1.92;;;1.20;;
18172;SDS011;9211;48.818;9.312;2022-11-20T09:51:08;2.30;;;1.00;;
18172;SDS011;9211;48.818;9.312;2022-11-20T09:53:46;1.60;;;0.90;;
18172;SDS011;9211;48.818;9.312;2022-11-20T09:56:27;2.25;;;1.17;;
18172;SDS011;9211;48.818;9.312;2022-11-20T09:58:59;2.28;;;1.10;;
18172;SDS011;9211;48.818;9.312;2022-11-20T10:01:31;2.30;;;1.10;;
18172;SDS011;9211;48.818;9.312;2022-11-20T10:04:02;1.20;;;0.90;;
18172;SDS011;9211;48.818;9.312;2022-11-20T10:06:31;1.27;;;0.73;;
18172;SDS011;9211;48.818;9.312;2022-11-20T10:09:01;1.67;;;1.00;;
18172;SDS011;9211;48.818;9.312;2022-11-20T10:11:36;0.93;;;0.60;;
18172;SDS011;9211;48.818;9.312;2022-11-20T10:14:16;1.45;;;0.75;;
18172;SDS011;9211;48.818;9.312;2022-11-20T10:16:56;2.30;;;0.80;;
18172;SDS011;9211;48.818;9.312;2022-11-20T10:19:33;0.90;;;0.70;;
18172;SDS011;9211;48.818;9.312;2022-11-20T10:22:17;0.68;;;0.60;;
18172;SDS011;9211;48.818;9.312;2022-11-20T10:24:59;1.17;;;0.70;;
18172;SDS011;9211;48.818;9.312;2022-11-20T10:30:34;1.38;;;0.70;;
18172;SDS011;9211;48.818;9.312;2022-11-20T10:33:08;2.15;;;0.90;;
18172;SDS011;9211;48.818;9.312;2022-11-20T10:35:40;2.40;;;1.00;;
18172;SDS011;9211;48.818;9.312;2022-11-20T10:38:11;1.67;;;1.08;;
18172;SDS011;9211;48.818;9.312;2022-11-20T10:40:44;1.20;;;0.98;;
18172;SDS011;9211;48.818;9.312;2022-11-20T10:43:15;1.50;;;1.10;;
18172;SDS011;9211;48.818;9.312;2022-11-20T10:45:50;1.38;;;0.98;;
18172;SDS011;9211;48.818;9.312;2022-11-20T10:48:24;2.85;;;1.60;;
18172;SDS011;9211;48.818;9.312;2022-11-20T10:50:59;2.78;;;1.20;;
18172;SDS011;9211;48.818;9.312;2022-11-20T10:56:24;2.00;;;0.70;;
18172;SDS011;9211;48.818;9.312;2022-11-20T10:59:08;1.00;;;0.70;;
18172;SDS011;9211;48.818;9.312;2022-11-20T11:01:50;1.50;;;0.77;;
18172;SDS011;9211;48.818;9.312;2022-11-20T11:04:22;2.45;;;0.90;;
18172;SDS011;9211;48.818;9.312;2022-11-20T11:07:01;1.90;;;0.88;;
18172;SDS011;9211;48.818;9.312;2022-11-20T11:09:35;1.40;;;0.90;;
18172;SDS011;9211;48.818;9.312;2022-11-20T11:12:07;2.03;;;0.90;;
18172;SDS011;9211;48.818;9.312;2022-11-20T11:14:44;2.00;;;1.20;;
18172;SDS011;9211;48.818;9.312;2022-11-20T11:17:26;2.38;;;1.30;;
18172;SDS011;9211;48.818;9.312;2022-11-20T11:20:03;2.85;;;1.60;;
18172;SDS011;9211;48.818;9.312;2022-11-20T11:22:43;2.67;;;1.10;;
18172;SDS011;9211;48.818;9.312;2022-11-20T11:25:18;1.50;;;1.08;;
18172;SDS011;9211;48.818;9.312;2022-11-20T11:27:48;4.88;;;1.35;;
18172;SDS011;9211;48.818;9.312;2022-11-20T11:30:16;2.10;;;1.25;;
18172;SDS011;9211;48.818;9.312;2022-11-20T11:32:45;2.85;;;1.55;;
18172;SDS011;9211;48.818;9.312;2022-11-20T11:35:21;2.60;;;1.52;;
18172;SDS011;9211;48.818;9.312;2022-11-20T11:37:50;2.47;;;1.33;;
18172;SDS011;9211;48.818;9.312;2022-11-20T11:40:19;2.55;;;1.45;;
18172;SDS011;9211;48.818;9.312;2022-11-20T11:42:50;2.85;;;1.42;;
18172;SDS011;9211;48.818;9.312;2022-11-20T11:45:20;3.53;;;1.58;;
18172;SDS011;9211;48.818;9.312;2022-11-20T11:47:47;4.70;;;1.50;;
18172;SDS011;9211;48.818;9.312;2022-11-20T11:50:16;2.20;;;1.40;;
18172;SDS011;9211;48.818;9.312;2022-11-20T11:52:48;2.83;;;1.40;;
18172;SDS011;9211;48.818;9.312;2022-11-20T11:55:25;2.33;;;1.40;;
18172;SDS011;9211;48.818;9.312;2022-11-20T11:57:59;2.78;;;1.27;;
18172;SDS011;9211;48.818;9.312;2022-11-20T12:00:41;2.17;;;1.30;;
18172;SDS011;9211;48.818;9.312;2022-11-20T12:03:18;2.90;;;1.60;;
18172;SDS011;9211;48.818;9.312;2022-11-20T12:05:49;3.25;;;1.60;;
18172;SDS011;9211;48.818;9.312;2022-11-20T12:08:24;2.92;;;1.55;;
18172;SDS011;9211;48.818;9.312;2022-11-20T12:10:57;3.35;;;1.45;;
18172;SDS011;9211;48.818;9.312;2022-11-20T12:13:40;3.07;;;1.50;;
18172;SDS011;9211;48.818;9.312;2022-11-20T12:16:14;4.60;;;1.40;;
18172;SDS011;9211;48.818;9.312;2022-11-20T12:18:45;2.80;;;1.30;;
18172;SDS011;9211;48.818;9.312;2022-11-20T12:21:18;3.42;;;1.40;;
18172;SDS011;9211;48.818;9.312;2022-11-20T12:23:54;2.42;;;1.30;;
18172;SDS011;9211;48.818;9.312;2022-11-20T12:26:37;5.03;;;1.30;;
18172;SDS011;9211;48.818;9.312;2022-11-20T12:29:17;3.73;;;1.53;;
18172;SDS011;9211;48.818;9.312;2022-11-20T12:31:58;3.80;;;1.40;;
18172;SDS011;9211;48.818;9.312;2022-11-20T12:34:37;4.57;;;1.20;;
18172;SDS011;9211;48.818;9.312;2022-11-20T12:37:17;3.08;;;1.20;;
18172;SDS011;9211;48.818;9.312;2022-11-20T12:39:58;2.40;;;1.17;;
18172;SDS011;9211;48.818;9.312;2022-11-20T12:42:42;3.17;;;1.13;;
18172;SDS011;9211;48.818;9.312;2022-11-20T12:48:42;1.90;;;0.95;;
18172;SDS011;9211;48.818;9.312;2022-11-20T12:51:37;4.47;;;1.00;;
18172;SDS011;9211;48.818;9.312;2022-11-20T12:57:16;3.15;;;1.00;;
18172;SDS011;9211;48.818;9.312;2022-11-20T12:59:55;3.70;;;1.00;;
18172;SDS011;9211;48.818;9.312;2022-11-20T13:02:30;2.42;;;1.10;;
18172;SDS011;9211;48.818;9.312;2022-11-20T13:05:06;1.85;;;0.90;;
18172;SDS011;9211;48.818;9.312;2022-11-20T13:07:45;2.03;;;0.95;;
18172;SDS011;9211;48.818;9.312;2022-11-20T13:10:18;2.85;;;0.95;;
18172;SDS011;9211;48.818;9.312;2022-11-20T13:12:56;3.03;;;1.02;;
18172;SDS011;9211;48.818;9.312;2022-11-20T13:15:32;1.95;;;0.88;;
18172;SDS011;9211;48.818;9.312;2022-11-20T13:18:07;2.50;;;1.00;;
18172;SDS011;9211;48.818;9.312;2022-11-20T13:20:36;2.00;;;0.70;;
18172;SDS011;9211;48.818;9.312;2022-11-20T13:23:08;2.80;;;1.10;;
18172;SDS011;9211;48.818;9.312;2022-11-20T13:25:36;3.03;;;0.90;;
18172;SDS011;9211;48.818;9.312;2022-11-20T13:30:53;2.40;;;0.77;;
18172;SDS011;9211;48.818;9.312;2022-11-20T13:33:22;2.65;;;1.05;;
18172;SDS011;9211;48.818;9.312;2022-11-20T13:35:57;1.95;;;0.82;;
18172;SDS011;9211;48.818;9.312;2022-11-20T13:38:25;2.80;;;0.80;;
18172;SDS011;9211;48.818;9.312;2022-11-20T13:40:53;4.15;;;1.10;;
18172;SDS011;9211;48.818;9.312;2022-11-20T13:43:26;1.90;;;0.85;;
18172;SDS011;9211;48.818;9.312;2022-11-20T13:46:00;1.73;;;0.85;;
18172;SDS011;9211;48.818;9.312;2022-11-20T13:48:30;3.75;;;0.90;;
18172;SDS011;9211;48.818;9.312;2022-11-20T13:51:02;1.55;;;0.70;;
18172;SDS011;9211;48.818;9.312;2022-11-20T13:56:29;2.77;;;0.73;;
18172;SDS011;9211;48.818;9.312;2022-11-20T13:59:05;1.75;;;0.80;;
18172;SDS011;9211;48.818;9.312;2022-11-20T14:01:40;2.00;;;0.90;;
18172;SDS011;9211;48.818;9.312;2022-11-20T14:04:12;2.60;;;1.00;;
18172;SDS011;9211;48.818;9.312;2022-11-20T14:06:42;2.00;;;1.00;;
18172;SDS011;9211;48.818;9.312;2022-11-20T14:09:11;2.58;;;0.82;;
18172;SDS011;9211;48.818;9.312;2022-11-20T14:11:45;3.45;;;0.90;;
18172;SDS011;9211;48.818;9.312;2022-11-20T14:14:15;2.08;;;1.00;;
18172;SDS011;9211;48.818;9.312;2022-11-20T14:16:44;2.15;;;0.65;;
18172;SDS011;9211;48.818;9.312;2022-11-20T14:19:20;1.88;;;0.70;;
18172;SDS011;9211;48.818;9.312;2022-11-20T14:21:54;1.83;;;0.70;;
18172;SDS011;9211;48.818;9.312;2022-11-20T14:24:32;2.03;;;0.77;;
18172;SDS011;9211;48.818;9.312;2022-11-20T14:27:00;1.63;;;0.77;;
18172;SDS011;9211;48.818;9.312;2022-11-20T14:29:29;2.00;;;0.90;;
18172;SDS011;9211;48.818;9.312;2022-11-20T14:32:01;2.65;;;0.70;;
18172;SDS011;9211;48.818;9.312;2022-11-20T14:34:30;2.30;;;0.80;;
18172;SDS011;9211;48.818;9.312;2022-11-20T14:36:59;2.67;;;0.85;;
18172;SDS011;9211;48.818;9.312;2022-11-20T14:39:29;2.13;;;0.98;;
18172;SDS011;9211;48.818;9.312;2022-11-20T14:41:58;3.17;;;1.30;;
18172;SDS011;9211;48.818;9.312;2022-11-20T14:44:26;3.50;;;1.83;;
18172;SDS011;9211;48.818;9.312;2022-11-20T14:46:57;5.27;;;2.27;;
18172;SDS011;9211;48.818;9.312;2022-11-20T14:49:26;5.03;;;2.70;;
18172;SDS011;9211;48.818;9.312;2022-11-20T14:51:59;4.40;;;2.22;;
18172;SDS011;9211;48.818;9.312;2022-11-20T14:54:27;3.47;;;1.70;;
18172;SDS011;9211;48.818;9.312;2022-11-20T14:56:56;5.43;;;1.60;;
18172;SDS011;9211;48.818;9.312;2022-11-20T14:59:24;3.08;;;1.58;;
18172;SDS011;9211;48.818;9.312;2022-11-20T15:01:58;3.30;;;1.60;;
18172;SDS011;9211;48.818;9.312;2022-11-20T15:04:28;3.42;;;1.50;;
18172;SDS011;9211;48.818;9.312;2022-11-20T15:06:57;3.42;;;1.30;;
18172;SDS011;9211;48.818;9.312;2022-11-20T15:09:25;3.45;;;1.50;;
18172;SDS011;9211;48.818;9.312;2022-11-20T15:11:53;3.78;;;1.30;;
18172;SDS011;9211;48.818;9.312;2022-11-20T15:14:22;2.50;;;1.30;;
18172;SDS011;9211;48.818;9.312;2022-11-20T15:16:52;3.27;;;1.20;;
18172;SDS011;9211;48.818;9.312;2022-11-20T15:19:22;2.63;;;1.30;;
18172;SDS011;9211;48.818;9.312;2022-11-20T15:21:51;3.23;;;1.30;;
18172;SDS011;9211;48.818;9.312;2022-11-20T15:24:18;2.83;;;1.08;;
18172;SDS011;9211;48.818;9.312;2022-11-20T15:26:46;2.72;;;1.10;;
18172;SDS011;9211;48.818;9.312;2022-11-20T15:29:14;2.22;;;1.10;;
18172;SDS011;9211;48.818;9.312;2022-11-20T15:31:43;3.03;;;1.02;;
18172;SDS011;9211;48.818;9.312;2022-11-20T15:34:11;2.88;;;1.00;;